createdAt,value
2022-09-21T00:01:22.477Z,99.30
2022-09-21T00:03:54.102Z,99.10
2022-09-21T00:06:23.665Z,98.90
2022-09-21T00:08:52.376Z,98.40
2022-09-21T00:11:24.026Z,98.20
2022-09-21T00:13:55.369Z,98.60
2022-09-21T00:16:24.375Z,99.10
2022-09-21T00:18:52.868Z,98.10
2022-09-21T00:21:21.851Z,97.00
2022-09-21T00:23:50.157Z,97.80
2022-09-21T00:26:20.611Z,98.20
2022-09-21T00:28:49.424Z,96.90
2022-09-21T00:31:19.212Z,96.90
2022-09-21T00:33:47.794Z,96.90
2022-09-21T00:36:17.902Z,97.80
2022-09-21T00:38:47.123Z,98.60
2022-09-21T00:41:15.530Z,96.80
2022-09-21T00:43:47.478Z,98.90
2022-09-21T00:46:27.392Z,99.40
2022-09-21T00:48:56.245Z,99.70
2022-09-21T00:51:24.453Z,99.90
2022-09-21T00:53:56.731Z,99.20
2022-09-21T00:56:25.600Z,99.90
2022-09-21T00:58:55.647Z,99.90
2022-09-21T01:01:25.398Z,99.60
2022-09-21T01:03:57.321Z,99.40
2022-09-21T01:06:26.882Z,99.60
2022-09-21T01:08:59.039Z,99.90
2022-09-21T01:11:35.079Z,99.90
2022-09-21T01:14:32.978Z,99.90
2022-09-21T01:17:10.113Z,99.90
2022-09-21T01:19:55.902Z,99.90
2022-09-21T01:22:38.700Z,99.90
2022-09-21T01:25:15.126Z,99.90
2022-09-21T01:27:55.092Z,99.90
2022-09-21T01:30:25.776Z,99.90
2022-09-21T01:33:01.225Z,99.90
2022-09-21T01:35:33.136Z,99.90
2022-09-21T01:38:05.442Z,99.90
2022-09-21T01:40:37.898Z,99.90
2022-09-21T01:43:08.337Z,99.90
2022-09-21T01:45:41.787Z,99.90
2022-09-21T01:48:11.247Z,99.90
2022-09-21T01:50:43.451Z,99.90
2022-09-21T01:53:16.679Z,99.90
2022-09-21T01:55:49.968Z,99.90
2022-09-21T01:58:24.241Z,99.90
2022-09-21T02:00:58.187Z,95.80
2022-09-21T02:03:31.261Z,95.70
2022-09-21T02:06:00.772Z,95.70
2022-09-21T02:08:33.252Z,99.90
2022-09-21T02:11:03.056Z,99.90
2022-09-21T02:13:35.408Z,95.60
2022-09-21T02:16:25.200Z,95.50
2022-09-21T02:19:02.694Z,95.50
2022-09-21T02:21:34.737Z,95.50
2022-09-21T02:24:11.346Z,95.50
2022-09-21T02:26:46.956Z,95.40
2022-09-21T02:29:21.858Z,95.30
2022-09-21T02:31:56.482Z,95.30
2022-09-21T02:34:32.220Z,99.90
2022-09-21T02:37:10.481Z,95.20
2022-09-21T02:39:44.257Z,95.20
2022-09-21T02:42:17.632Z,95.20
2022-09-21T02:44:50.037Z,99.90
2022-09-21T02:47:23.764Z,99.90
2022-09-21T02:49:57.116Z,95.20
2022-09-21T02:52:28.525Z,99.90
2022-09-21T02:54:58.051Z,99.90
2022-09-21T02:57:27.600Z,95.00
2022-09-21T02:59:56.176Z,96.00
2022-09-21T03:02:25.828Z,96.10
2022-09-21T03:04:54.787Z,95.30
2022-09-21T03:07:23.073Z,95.00
2022-09-21T03:09:51.284Z,94.40
2022-09-21T03:12:20.568Z,94.40
2022-09-21T03:14:49.803Z,94.20
2022-09-21T03:17:17.937Z,93.90
2022-09-21T03:19:47.519Z,94.20
2022-09-21T03:22:17.115Z,93.70
2022-09-21T03:24:48.084Z,93.40
2022-09-21T03:27:18.221Z,93.20
2022-09-21T03:29:47.189Z,93.30
2022-09-21T03:32:15.836Z,93.20
2022-09-21T03:34:44.346Z,93.30
2022-09-21T03:37:14.039Z,93.20
2022-09-21T03:39:42.209Z,93.10
2022-09-21T03:42:10.630Z,93.30
2022-09-21T03:44:38.965Z,93.60
2022-09-21T03:47:07.592Z,93.70
2022-09-21T03:49:36.010Z,93.70
2022-09-21T03:52:05.192Z,93.80
2022-09-21T03:54:34.945Z,93.80
2022-09-21T03:57:03.183Z,93.80
2022-09-21T03:59:31.488Z,93.80
2022-09-21T04:01:59.692Z,93.70
2022-09-21T04:04:27.957Z,97.90
2022-09-21T04:06:56.338Z,93.70
2022-09-21T04:09:24.633Z,93.70
2022-09-21T04:11:54.503Z,93.70
2022-09-21T04:14:23.411Z,93.70
2022-09-21T04:16:52.220Z,93.70
2022-09-21T04:19:22.050Z,93.60
2022-09-21T04:21:51.428Z,93.70
2022-09-21T04:24:19.791Z,93.70
2022-09-21T04:26:51.769Z,93.60
2022-09-21T04:29:21.475Z,93.60
2022-09-21T04:31:49.740Z,93.60
2022-09-21T04:34:17.994Z,93.60
2022-09-21T04:36:47.255Z,98.80
2022-09-21T04:39:15.524Z,99.70
2022-09-21T04:41:43.688Z,99.20
2022-09-21T04:44:11.906Z,99.90
2022-09-21T04:46:42.403Z,99.30
2022-09-21T04:49:10.751Z,99.80
2022-09-21T04:51:39.098Z,99.90
2022-09-21T04:54:07.768Z,93.30
2022-09-21T04:56:36.228Z,95.80
2022-09-21T04:59:05.201Z,97.10
2022-09-21T05:01:33.568Z,93.20
2022-09-21T05:04:03.613Z,93.20
2022-09-21T05:06:32.983Z,93.10
2022-09-21T05:09:18.791Z,95.90
2022-09-21T05:11:47.431Z,93.00
2022-09-21T05:14:15.888Z,93.10
2022-09-21T05:16:44.074Z,93.10
2022-09-21T05:19:14.243Z,93.10
2022-09-21T05:21:43.226Z,98.30
2022-09-21T05:24:11.532Z,96.30
2022-09-21T05:26:39.779Z,93.10
2022-09-21T05:29:08.531Z,98.80
2022-09-21T05:31:49.957Z,93.10
2022-09-21T05:34:36.665Z,93.00
2022-09-21T05:37:11.412Z,93.10
2022-09-21T05:39:40.801Z,97.70
2022-09-21T05:42:12.333Z,97.40
2022-09-21T05:44:40.681Z,97.80
2022-09-21T05:47:22.090Z,98.20
2022-09-21T05:50:02.384Z,97.50
2022-09-21T05:52:36.780Z,98.70
2022-09-21T05:55:11.513Z,98.60
2022-09-21T05:57:47.080Z,98.40
2022-09-21T06:00:19.833Z,98.00
2022-09-21T06:03:19.465Z,97.80
2022-09-21T06:05:49.080Z,99.90
2022-09-21T06:08:17.275Z,99.20
2022-09-21T06:10:45.600Z,98.90
2022-09-21T06:13:13.796Z,99.90
2022-09-21T06:15:42.251Z,99.90
2022-09-21T06:18:15.498Z,99.90
2022-09-21T06:23:16.215Z,99.90
2022-09-21T06:25:44.477Z,99.90
2022-09-21T06:28:14.272Z,99.40
2022-09-21T06:30:45.047Z,99.90
2022-09-21T06:33:13.353Z,99.90
2022-09-21T06:35:41.568Z,99.90
2022-09-21T06:38:09.823Z,99.90
2022-09-21T06:40:39.442Z,99.90
2022-09-21T06:45:36.349Z,99.90
2022-09-21T06:53:02.588Z,99.90
2022-09-21T06:58:03.329Z,99.90
2022-09-21T07:00:32.497Z,99.90
2022-09-21T07:03:01.101Z,95.10
2022-09-21T07:07:59.316Z,99.90
2022-09-21T07:10:27.971Z,99.90
2022-09-21T07:15:29.962Z,99.20
2022-09-21T07:18:06.000Z,95.20
2022-09-21T07:20:34.520Z,95.50
2022-09-21T07:23:02.742Z,99.90
2022-09-21T07:25:31.381Z,99.90
2022-09-21T07:28:01.764Z,96.40
2022-09-21T07:30:31.348Z,95.60
2022-09-21T07:32:59.767Z,95.60
2022-09-21T07:35:27.923Z,95.80
2022-09-21T07:37:58.524Z,95.90
2022-09-21T07:40:27.109Z,95.90
2022-09-21T07:42:59.284Z,95.80
2022-09-21T07:45:27.980Z,95.70
2022-09-21T07:47:57.725Z,95.60
2022-09-21T07:50:26.401Z,96.10
2022-09-21T07:52:54.648Z,96.50
2022-09-21T07:55:22.888Z,96.40
2022-09-21T07:58:08.731Z,96.40
2022-09-21T08:00:38.305Z,96.50
2022-09-21T08:03:08.241Z,96.40
2022-09-21T08:05:36.535Z,96.30
2022-09-21T08:08:04.980Z,96.40
2022-09-21T08:10:33.873Z,96.30
2022-09-21T08:13:02.125Z,96.60
2022-09-21T08:15:48.786Z,96.50
2022-09-21T08:18:19.317Z,96.70
2022-09-21T08:20:55.551Z,96.60
2022-09-21T08:23:24.157Z,96.70
2022-09-21T08:25:52.450Z,96.70
2022-09-21T08:28:20.716Z,96.30
2022-09-21T08:30:49.351Z,96.40
2022-09-21T08:33:19.004Z,96.40
2022-09-21T08:35:53.628Z,96.30
2022-09-21T08:38:22.052Z,96.40
2022-09-21T08:40:51.262Z,99.90
2022-09-21T08:43:29.147Z,96.50
2022-09-21T08:45:58.788Z,96.70
2022-09-21T08:48:36.651Z,97.10
2022-09-21T08:51:08.234Z,96.90
2022-09-21T08:53:39.895Z,97.10
2022-09-21T08:56:10.312Z,97.10
2022-09-21T08:58:40.645Z,97.40
2022-09-21T09:01:26.497Z,97.20
2022-09-21T09:04:30.064Z,97.60
2022-09-21T09:07:14.081Z,97.30
2022-09-21T09:09:59.136Z,97.30
2022-09-21T09:12:42.599Z,97.40
2022-09-21T09:15:42.301Z,97.40
2022-09-21T09:18:19.499Z,97.60
2022-09-21T09:20:54.955Z,97.50
2022-09-21T09:23:30.052Z,97.50
2022-09-21T09:26:02.743Z,97.50
2022-09-21T09:28:36.108Z,97.60
2022-09-21T09:31:11.998Z,97.50
2022-09-21T09:33:52.901Z,97.20
2022-09-21T09:36:46.489Z,96.90
2022-09-21T09:39:15.113Z,97.10
2022-09-21T09:41:59.241Z,97.20
2022-09-21T09:44:44.600Z,97.30
2022-09-21T09:47:26.678Z,97.40
2022-09-21T09:50:04.663Z,97.30
2022-09-21T09:52:34.871Z,97.30
2022-09-21T09:55:12.612Z,97.40
2022-09-21T09:57:40.984Z,97.40
2022-09-21T10:00:14.967Z,97.40
2022-09-21T10:02:50.696Z,97.50
2022-09-21T10:05:24.837Z,97.50
2022-09-21T10:07:54.704Z,97.50
2022-09-21T10:10:34.212Z,97.50
2022-09-21T10:13:14.655Z,97.50
2022-09-21T10:15:50.840Z,97.50
2022-09-21T10:18:22.432Z,97.50
2022-09-21T10:20:59.839Z,97.50
2022-09-21T10:23:30.700Z,97.40
2022-09-21T10:26:02.832Z,97.20
2022-09-21T10:28:31.971Z,97.10
2022-09-21T10:31:22.546Z,97.30
2022-09-21T10:33:54.466Z,97.20
2022-09-21T10:36:34.536Z,97.50
2022-09-21T10:39:23.200Z,97.10
2022-09-21T10:41:53.761Z,96.80
2022-09-21T10:44:24.977Z,96.80
2022-09-21T10:46:54.129Z,96.70
2022-09-21T10:49:25.271Z,99.90
2022-09-21T10:51:56.183Z,99.90
2022-09-21T10:54:29.087Z,99.90
2022-09-21T10:57:04.092Z,99.90
2022-09-21T10:59:33.917Z,97.10
2022-09-21T11:02:03.893Z,96.70
2022-09-21T11:04:42.790Z,96.70
2022-09-21T11:07:17.431Z,97.10
2022-09-21T11:09:53.622Z,96.80
2022-09-21T11:12:48.528Z,96.90
2022-09-21T11:15:26.402Z,96.70
2022-09-21T11:18:03.591Z,96.80
2022-09-21T11:20:40.490Z,96.90
2022-09-21T11:23:17.956Z,96.90
2022-09-21T11:25:54.422Z,96.80
2022-09-21T11:28:28.166Z,97.10
2022-09-21T11:31:32.724Z,97.00
2022-09-21T11:34:27.045Z,97.10
2022-09-21T11:37:09.912Z,97.00
2022-09-21T11:39:50.555Z,97.10
2022-09-21T11:42:33.630Z,97.00
2022-09-21T11:45:04.075Z,97.20
2022-09-21T11:47:54.639Z,96.60
2022-09-21T11:50:44.998Z,96.90
2022-09-21T11:53:26.805Z,97.00
2022-09-21T11:56:08.123Z,96.70
2022-09-21T11:58:45.231Z,96.60
2022-09-21T12:01:27.564Z,96.70
2022-09-21T12:04:13.134Z,96.70
2022-09-21T12:06:57.690Z,96.60
2022-09-21T12:09:55.128Z,96.60
2022-09-21T12:12:30.985Z,99.90
2022-09-21T12:15:04.350Z,98.10
2022-09-21T12:17:45.189Z,96.00
2022-09-21T12:20:18.198Z,95.80
2022-09-21T12:22:49.624Z,95.70
2022-09-21T12:25:21.067Z,95.60
2022-09-21T12:27:52.976Z,96.00
2022-09-21T12:30:24.441Z,96.10
2022-09-21T12:32:58.184Z,96.00
2022-09-21T12:35:34.524Z,95.90
2022-09-21T12:38:12.547Z,96.20
2022-09-21T12:40:47.347Z,96.10
2022-09-21T12:43:27.478Z,95.50
2022-09-21T12:46:01.306Z,95.80
2022-09-21T12:48:33.517Z,96.20
2022-09-21T12:51:07.557Z,96.30
2022-09-21T12:53:38.856Z,96.00
2022-09-21T12:56:11.180Z,96.10
2022-09-21T12:58:48.816Z,96.20
2022-09-21T13:01:27.448Z,95.60
2022-09-21T13:04:10.717Z,95.50
2022-09-21T13:06:59.136Z,95.60
2022-09-21T13:09:29.421Z,95.50
2022-09-21T13:12:01.881Z,95.30
2022-09-21T13:14:36.393Z,95.10
2022-09-21T13:17:07.273Z,95.50
2022-09-21T13:19:37.166Z,95.50
2022-09-21T13:22:14.553Z,95.60
2022-09-21T13:24:45.562Z,95.70
2022-09-21T13:27:15.231Z,95.50
2022-09-21T13:29:43.779Z,95.60
2022-09-21T13:32:27.157Z,95.70
2022-09-21T13:35:39.069Z,95.20
2022-09-21T13:38:27.321Z,95.30
2022-09-21T13:41:00.760Z,94.90
2022-09-21T13:44:04.962Z,94.70
2022-09-21T13:46:58.240Z,94.80
2022-09-21T13:49:46.072Z,94.60
2022-09-21T13:52:37.387Z,93.80
2022-09-21T13:55:19.228Z,93.50
2022-09-21T13:57:48.799Z,94.00
2022-09-21T14:00:36.093Z,94.00
2022-09-21T14:03:08.582Z,94.20
2022-09-21T14:05:43.150Z,94.20
2022-09-21T14:08:23.603Z,94.50
2022-09-21T14:10:55.869Z,94.70
2022-09-21T14:13:29.794Z,95.10
2022-09-21T14:16:48.105Z,94.60
2022-09-21T14:20:04.155Z,94.50
2022-09-21T14:22:41.843Z,93.60
2022-09-21T14:25:32.224Z,93.40
2022-09-21T14:28:12.490Z,93.10
2022-09-21T14:30:42.465Z,93.10
2022-09-21T14:33:33.953Z,92.90
2022-09-21T14:36:09.004Z,93.20
2022-09-21T14:38:51.641Z,93.50
2022-09-21T14:41:24.381Z,93.40
2022-09-21T14:43:55.660Z,93.50
2022-09-21T14:46:59.648Z,93.90
2022-09-21T14:49:51.640Z,93.10
2022-09-21T14:52:32.627Z,93.40
2022-09-21T14:55:17.344Z,92.90
2022-09-21T14:58:15.738Z,92.60
2022-09-21T15:00:46.385Z,92.30
2022-09-21T15:03:39.013Z,92.40
2022-09-21T15:06:35.803Z,92.10
2022-09-21T15:09:41.988Z,91.30
2022-09-21T15:12:16.579Z,91.00
2022-09-21T15:14:48.417Z,91.70
2022-09-21T15:17:25.394Z,92.20
2022-09-21T15:19:59.069Z,92.20
2022-09-21T15:22:28.402Z,92.30
2022-09-21T15:24:58.093Z,92.20
2022-09-21T15:27:33.492Z,92.70
2022-09-21T15:30:06.571Z,93.30
2022-09-21T15:32:40.469Z,93.60
2022-09-21T15:35:19.326Z,93.50
2022-09-21T15:37:48.243Z,93.60
2022-09-21T15:40:23.341Z,93.60
2022-09-21T15:43:04.684Z,93.90
2022-09-21T15:45:38.571Z,93.70
2022-09-21T15:48:13.378Z,93.10
2022-09-21T15:50:43.730Z,92.20
2022-09-21T15:53:19.763Z,92.00
2022-09-21T15:55:49.215Z,91.80
2022-09-21T15:58:31.890Z,91.60
2022-09-21T16:01:01.418Z,91.50
2022-09-21T16:03:30.020Z,91.30
2022-09-21T16:06:02.464Z,91.40
2022-09-21T16:08:34.575Z,91.40
2022-09-21T16:11:15.914Z,91.50
2022-09-21T16:14:07.307Z,91.60
2022-09-21T16:17:09.242Z,91.80
2022-09-21T16:19:46.296Z,91.90
2022-09-21T16:22:17.502Z,92.00
2022-09-21T16:24:47.542Z,92.10
2022-09-21T16:27:19.110Z,92.00
2022-09-21T16:29:50.965Z,92.20
2022-09-21T16:32:31.589Z,92.10
2022-09-21T16:35:28.389Z,92.10
2022-09-21T16:37:58.951Z,92.30
2022-09-21T16:40:28.067Z,92.40
2022-09-21T16:42:56.483Z,92.40
2022-09-21T16:45:29.677Z,92.40
2022-09-21T16:47:59.411Z,92.40
2022-09-21T16:50:27.717Z,92.40
2022-09-21T16:52:56.073Z,92.60
2022-09-21T16:55:28.975Z,92.60
2022-09-21T16:57:57.978Z,92.70
2022-09-21T17:00:32.440Z,92.80
2022-09-21T17:03:02.306Z,92.90
2022-09-21T17:05:30.618Z,92.90
2022-09-21T17:08:00.874Z,93.20
2022-09-21T17:10:33.163Z,93.30
2022-09-21T17:13:04.439Z,93.30
2022-09-21T17:15:35.917Z,93.40
2022-09-21T17:18:05.125Z,93.50
2022-09-21T17:20:36.603Z,93.50
2022-09-21T17:23:04.995Z,93.60
2022-09-21T17:25:34.241Z,93.70
2022-09-21T17:28:03.355Z,94.10
2022-09-21T17:30:35.191Z,94.20
2022-09-21T17:33:03.375Z,94.10
2022-09-21T17:35:34.059Z,94.20
2022-09-21T17:38:02.402Z,94.20
2022-09-21T17:40:31.441Z,94.40
2022-09-21T17:43:22.620Z,94.50
2022-09-21T17:45:58.981Z,94.60
2022-09-21T17:48:31.798Z,94.60
2022-09-21T17:51:02.782Z,94.70
2022-09-21T17:53:37.473Z,94.90
2022-09-21T17:56:25.855Z,94.90
2022-09-21T17:58:59.270Z,94.90
2022-09-21T18:01:33.793Z,95.10
2022-09-21T18:04:02.558Z,95.20
2022-09-21T18:06:31.516Z,95.20
2022-09-21T18:09:00.208Z,95.40
2022-09-21T18:11:49.931Z,95.50
2022-09-21T18:14:25.793Z,95.60
2022-09-21T18:17:09.615Z,95.70
2022-09-21T18:19:49.544Z,95.70
2022-09-21T18:22:28.710Z,95.80
2022-09-21T18:24:57.983Z,95.70
2022-09-21T18:27:26.907Z,95.60
2022-09-21T18:29:55.631Z,95.60
2022-09-21T18:32:43.678Z,95.40
2022-09-21T18:35:25.354Z,95.50
2022-09-21T18:38:04.849Z,95.50
2022-09-21T18:40:39.847Z,95.70
2022-09-21T18:43:22.635Z,95.60
2022-09-21T18:46:01.922Z,95.60
2022-09-21T18:48:50.580Z,95.70
2022-09-21T18:51:24.976Z,95.60
2022-09-21T18:53:56.128Z,95.70
2022-09-21T18:56:25.297Z,95.80
2022-09-21T18:58:54.030Z,96.10
2022-09-21T19:01:23.821Z,95.70
2022-09-21T19:03:54.210Z,95.80
2022-09-21T19:06:32.908Z,95.80
2022-09-21T19:09:12.645Z,95.90
2022-09-21T19:11:50.150Z,96.20
2022-09-21T19:14:28.538Z,95.80
2022-09-21T19:17:08.851Z,95.90
2022-09-21T19:19:48.634Z,95.90
2022-09-21T19:22:24.525Z,95.30
2022-09-21T19:25:08.698Z,95.10
2022-09-21T19:27:40.461Z,95.00
2022-09-21T19:30:11.798Z,95.00
2022-09-21T19:32:45.558Z,95.40
2022-09-21T19:35:26.654Z,95.10
2022-09-21T19:37:56.279Z,94.90
2022-09-21T19:40:28.717Z,94.80
2022-09-21T19:43:13.410Z,94.90
2022-09-21T19:45:58.489Z,94.70
2022-09-21T19:48:28.989Z,95.10
2022-09-21T19:50:59.283Z,95.30
2022-09-21T19:53:45.838Z,95.40
2022-09-21T19:56:33.699Z,95.20
2022-09-21T19:59:20.077Z,95.20
2022-09-21T20:01:54.817Z,95.20
2022-09-21T20:04:36.670Z,95.20
2022-09-21T20:07:09.720Z,95.30
2022-09-21T20:09:43.651Z,95.50
2022-09-21T20:12:18.622Z,95.70
2022-09-21T20:14:51.939Z,95.80
2022-09-21T20:17:26.044Z,95.60
2022-09-21T20:20:01.064Z,95.50
2022-09-21T20:22:35.872Z,95.30
2022-09-21T20:25:11.507Z,95.20
2022-09-21T20:27:42.176Z,95.20
2022-09-21T20:30:13.115Z,95.40
2022-09-21T20:32:44.494Z,95.50
2022-09-21T20:35:17.384Z,95.60
2022-09-21T20:37:47.368Z,95.60
2022-09-21T20:40:16.589Z,95.70
2022-09-21T20:42:45.096Z,95.60
2022-09-21T20:45:14.673Z,95.50
2022-09-21T20:47:43.107Z,95.30
2022-09-21T20:50:13.649Z,95.20
2022-09-21T20:52:42.924Z,95.30
2022-09-21T20:55:15.133Z,95.20
2022-09-21T20:57:43.415Z,95.40
2022-09-21T21:00:13.608Z,95.10
2022-09-21T21:02:42.311Z,94.90
2022-09-21T21:05:11.463Z,94.50
2022-09-21T21:07:42.460Z,94.60
2022-09-21T21:10:14.247Z,94.50
2022-09-21T21:12:42.631Z,94.90
2022-09-21T21:15:12.499Z,94.90
2022-09-21T21:17:42.087Z,95.00
2022-09-21T21:20:11.295Z,95.00
2022-09-21T21:22:39.562Z,95.20
2022-09-21T21:25:08.758Z,95.30
2022-09-21T21:27:38.310Z,95.20
2022-09-21T21:30:08.106Z,95.10
2022-09-21T21:32:37.325Z,95.20
2022-09-21T21:35:07.073Z,95.20
2022-09-21T21:37:35.393Z,95.40
2022-09-21T21:40:03.931Z,95.10
2022-09-21T21:42:32.225Z,95.20
2022-09-21T21:45:01.820Z,95.00
2022-09-21T21:47:45.360Z,95.10
2022-09-21T21:50:13.618Z,95.00
2022-09-21T21:52:41.843Z,94.80
2022-09-21T21:55:10.616Z,94.70
2022-09-21T21:57:38.802Z,94.70
2022-09-21T22:00:10.246Z,94.60
2022-09-21T22:02:38.506Z,94.60
2022-09-21T22:05:07.585Z,94.50
2022-09-21T22:07:36.553Z,94.40
2022-09-21T22:10:05.172Z,94.20
2022-09-21T22:12:33.756Z,94.10
2022-09-21T22:15:02.776Z,94.10
2022-09-21T22:17:32.282Z,94.20
2022-09-21T22:20:00.522Z,94.00
2022-09-21T22:22:28.765Z,94.00
2022-09-21T22:24:57.018Z,93.90
2022-09-21T22:27:25.500Z,93.90
2022-09-21T22:29:53.764Z,93.90
2022-09-21T22:32:22.096Z,93.90
2022-09-21T22:34:51.697Z,93.90
2022-09-21T22:37:19.861Z,93.90
2022-09-21T22:39:48.160Z,93.80
2022-09-21T22:42:16.354Z,93.80
2022-09-21T22:44:44.619Z,93.80
2022-09-21T22:47:12.782Z,93.80
2022-09-21T22:49:41.000Z,93.80
2022-09-21T22:52:10.573Z,93.80
2022-09-21T22:54:38.801Z,93.80
2022-09-21T22:57:07.053Z,93.80
2022-09-21T22:59:35.327Z,93.80
2022-09-21T23:02:03.511Z,93.70
2022-09-21T23:04:31.819Z,93.70
2022-09-21T23:07:00.088Z,93.70
2022-09-21T23:09:29.864Z,93.70
2022-09-21T23:11:58.437Z,93.60
2022-09-21T23:14:26.696Z,93.60
2022-09-21T23:16:54.895Z,93.50
2022-09-21T23:19:23.151Z,93.60
2022-09-21T23:21:52.841Z,93.60
2022-09-21T23:24:21.958Z,93.60
2022-09-21T23:26:51.843Z,93.60
2022-09-21T23:29:20.333Z,93.70
2022-09-21T23:31:48.843Z,93.60
2022-09-21T23:34:17.651Z,93.60
2022-09-21T23:36:46.472Z,93.50
2022-09-21T23:39:16.107Z,93.50
2022-09-21T23:41:44.882Z,93.50
2022-09-21T23:44:14.689Z,93.50
2022-09-21T23:46:43.227Z,93.50
2022-09-21T23:49:11.501Z,93.40
2022-09-21T23:51:40.660Z,93.50
2022-09-21T23:54:08.974Z,93.40
2022-09-21T23:56:37.712Z,93.30
2022-09-21T23:59:06.068Z,93.30
